createdAt,value
2019-03-30T00:00:31.791Z,42.00
2019-03-30T00:03:00.840Z,38.77
2019-03-30T00:05:32.945Z,45.13
2019-03-30T00:08:01.946Z,45.50
2019-03-30T00:10:31.107Z,49.47
2019-03-30T00:13:00.112Z,38.43
2019-03-30T00:15:29.073Z,42.70
2019-03-30T00:17:58.078Z,43.23
2019-03-30T00:20:27.131Z,52.77
2019-03-30T00:22:56.200Z,40.90
2019-03-30T00:25:25.211Z,44.17
2019-03-30T00:27:54.184Z,46.00
2019-03-30T00:30:23.313Z,43.80
2019-03-30T00:32:52.344Z,47.50
2019-03-30T00:35:21.343Z,48.07
2019-03-30T00:37:50.417Z,42.90
2019-03-30T00:40:19.469Z,41.57
2019-03-30T00:42:48.599Z,35.87
2019-03-30T00:45:17.659Z,34.50
2019-03-30T00:47:46.713Z,34.67
2019-03-30T00:50:15.777Z,34.73
2019-03-30T00:52:47.281Z,36.83
2019-03-30T00:55:16.299Z,38.10
2019-03-30T00:57:45.357Z,42.67
2019-03-30T01:00:14.528Z,51.27
2019-03-30T01:02:43.502Z,48.93
2019-03-30T01:05:12.507Z,39.17
2019-03-30T01:07:41.577Z,41.60
2019-03-30T01:10:10.627Z,41.17
2019-03-30T01:12:39.668Z,43.37
2019-03-30T01:15:08.860Z,38.37
2019-03-30T01:17:37.933Z,41.03
2019-03-30T01:20:07.499Z,40.23
2019-03-30T01:22:36.562Z,37.73
2019-03-30T01:25:06.115Z,40.23
2019-03-30T01:27:35.195Z,42.63
2019-03-30T01:30:04.684Z,41.30
2019-03-30T01:32:35.181Z,40.27
2019-03-30T01:35:04.439Z,34.23
2019-03-30T01:37:33.460Z,42.60
2019-03-30T01:40:02.445Z,39.40
2019-03-30T01:42:31.442Z,38.47
2019-03-30T01:45:00.480Z,42.23
2019-03-30T01:47:29.497Z,41.37
2019-03-30T01:49:58.595Z,39.90
2019-03-30T01:52:27.670Z,41.67
2019-03-30T01:54:56.732Z,44.50
2019-03-30T01:57:25.731Z,35.43
2019-03-30T01:59:54.735Z,41.77
2019-03-30T02:02:23.807Z,33.70
2019-03-30T02:04:52.821Z,30.57
2019-03-30T02:07:21.804Z,41.20
2019-03-30T02:09:50.840Z,41.03
2019-03-30T02:12:19.829Z,39.27
2019-03-30T02:14:48.999Z,33.53
2019-03-30T02:17:20.116Z,32.23
2019-03-30T02:19:48.708Z,34.60
2019-03-30T02:22:17.752Z,30.93
2019-03-30T02:24:46.870Z,35.50
2019-03-30T02:27:15.838Z,32.87
2019-03-30T02:29:46.632Z,31.73
2019-03-30T02:32:15.612Z,35.20
2019-03-30T02:34:44.644Z,37.70
2019-03-30T02:37:13.674Z,29.13
2019-03-30T02:39:42.724Z,34.77
2019-03-30T02:42:11.724Z,31.77
2019-03-30T02:44:40.687Z,27.13
2019-03-30T02:47:09.694Z,41.43
2019-03-30T02:49:38.794Z,51.30
2019-03-30T02:52:07.896Z,40.50
2019-03-30T02:54:36.896Z,32.60
2019-03-30T02:57:05.923Z,40.87
2019-03-30T02:59:34.993Z,35.07
2019-03-30T03:02:04.001Z,43.97
2019-03-30T03:04:33.048Z,35.67
2019-03-30T03:07:02.077Z,31.03
2019-03-30T03:09:31.127Z,37.57
2019-03-30T03:12:00.196Z,34.17
2019-03-30T03:14:29.312Z,35.33
2019-03-30T03:16:58.324Z,40.23
2019-03-30T03:19:27.387Z,38.13
2019-03-30T03:21:56.451Z,34.97
2019-03-30T03:24:25.456Z,32.80
2019-03-30T03:26:54.479Z,36.67
2019-03-30T03:29:23.523Z,38.20
2019-03-30T03:31:52.510Z,33.33
2019-03-30T03:34:21.604Z,44.07
2019-03-30T03:36:50.702Z,47.70
2019-03-30T03:39:19.759Z,41.07
2019-03-30T03:41:48.818Z,39.73
2019-03-30T03:44:21.333Z,32.37
2019-03-30T03:46:50.386Z,53.80
2019-03-30T03:49:21.137Z,24.23
2019-03-30T03:51:50.232Z,42.07
2019-03-30T03:54:19.274Z,43.53
2019-03-30T03:56:48.270Z,35.23
2019-03-30T03:59:17.635Z,38.10
2019-03-30T04:01:48.087Z,44.07
2019-03-30T04:04:22.130Z,38.83
2019-03-30T04:06:51.965Z,35.63
2019-03-30T04:09:22.529Z,34.87
2019-03-30T04:11:51.928Z,41.43
2019-03-30T04:14:23.985Z,34.63
2019-03-30T04:16:53.094Z,44.47
2019-03-30T04:19:22.136Z,41.93
2019-03-30T04:21:51.178Z,37.87
2019-03-30T04:24:20.192Z,36.23
2019-03-30T04:26:49.254Z,35.93
2019-03-30T04:29:19.897Z,32.50
2019-03-30T04:31:48.988Z,36.03
2019-03-30T04:34:18.040Z,35.03
2019-03-30T04:36:47.106Z,37.57
2019-03-30T04:39:16.091Z,28.40
2019-03-30T04:41:45.416Z,30.10
2019-03-30T04:44:14.444Z,29.30
2019-03-30T04:46:43.451Z,34.43
2019-03-30T04:49:12.449Z,35.33
2019-03-30T04:51:41.498Z,39.77
2019-03-30T04:54:10.569Z,36.63
2019-03-30T04:56:39.545Z,32.70
2019-03-30T04:59:08.614Z,42.77
2019-03-30T05:01:37.673Z,32.93
2019-03-30T05:04:07.363Z,37.63
2019-03-30T05:06:39.345Z,32.63
2019-03-30T05:09:08.348Z,44.00
2019-03-30T05:11:37.385Z,43.57
2019-03-30T05:14:06.408Z,37.40
2019-03-30T05:16:35.446Z,35.90
2019-03-30T05:19:04.444Z,29.97
2019-03-30T05:21:33.447Z,29.30
2019-03-30T05:24:02.547Z,42.47
2019-03-30T05:26:31.535Z,33.00
2019-03-30T05:29:00.543Z,38.73
2019-03-30T05:31:29.609Z,34.57
2019-03-30T05:34:00.614Z,33.20
2019-03-30T05:36:29.436Z,39.80
2019-03-30T05:38:58.495Z,28.53
2019-03-30T05:41:27.554Z,36.03
2019-03-30T05:43:56.579Z,44.67
2019-03-30T05:46:25.549Z,33.63
2019-03-30T05:48:54.556Z,46.30
2019-03-30T05:51:25.499Z,32.63
2019-03-30T05:53:54.260Z,34.97
2019-03-30T05:56:23.292Z,31.20
2019-03-30T05:58:52.436Z,38.87
2019-03-30T06:01:21.411Z,39.73
2019-03-30T06:03:50.474Z,31.07
2019-03-30T06:06:19.476Z,41.57
2019-03-30T06:08:48.560Z,36.90
2019-03-30T06:11:17.615Z,39.20
2019-03-30T06:13:46.621Z,36.33
2019-03-30T06:16:15.661Z,37.13
2019-03-30T06:18:45.772Z,31.80
2019-03-30T06:21:14.831Z,32.70
2019-03-30T06:23:43.839Z,30.97
2019-03-30T06:26:16.328Z,38.90
2019-03-30T06:28:45.338Z,32.07
2019-03-30T06:31:14.433Z,37.13
2019-03-30T06:33:43.445Z,34.10
2019-03-30T06:36:12.457Z,30.33
2019-03-30T06:38:41.459Z,30.70
2019-03-30T06:41:11.186Z,30.50
2019-03-30T06:43:40.180Z,28.37
2019-03-30T06:46:09.363Z,30.13
2019-03-30T06:48:38.358Z,37.17
2019-03-30T06:51:07.385Z,30.17
2019-03-30T06:53:36.453Z,32.77
2019-03-30T06:56:08.222Z,30.80
2019-03-30T06:58:37.251Z,33.03
2019-03-30T07:01:06.270Z,32.17
2019-03-30T07:03:35.473Z,29.70
2019-03-30T07:06:04.827Z,33.40
2019-03-30T07:08:33.895Z,30.07
2019-03-30T07:11:02.972Z,28.80
2019-03-30T07:13:33.424Z,26.03
2019-03-30T07:16:04.395Z,26.67
2019-03-30T07:18:35.003Z,26.90
2019-03-30T07:21:03.998Z,28.43
2019-03-30T07:23:33.011Z,27.13
2019-03-30T07:26:02.026Z,24.43
2019-03-30T07:28:31.108Z,25.87
2019-03-30T07:31:00.172Z,28.77
2019-03-30T07:33:31.835Z,25.47
2019-03-30T07:36:00.870Z,25.50
2019-03-30T07:38:29.962Z,24.63
2019-03-30T07:40:59.035Z,29.23
2019-03-30T07:43:28.056Z,23.90
2019-03-30T07:45:59.404Z,27.13
2019-03-30T07:48:28.407Z,24.27
2019-03-30T07:50:57.459Z,23.83
2019-03-30T07:53:27.153Z,28.80
2019-03-30T07:56:07.683Z,24.10
2019-03-30T07:58:27.122Z,22.43
2019-03-30T08:00:56.123Z,30.40
2019-03-30T08:03:25.156Z,21.53
2019-03-30T08:05:55.096Z,19.70
2019-03-30T08:08:24.190Z,23.57
2019-03-30T08:10:53.314Z,20.67
2019-03-30T08:13:22.332Z,24.20
2019-03-30T08:15:51.334Z,19.45
2019-03-30T08:18:20.490Z,19.45
2019-03-30T08:20:49.557Z,18.90
2019-03-30T08:23:18.679Z,17.83
2019-03-30T08:25:47.750Z,22.75
2019-03-30T08:28:16.731Z,19.23
2019-03-30T08:30:47.658Z,18.32
2019-03-30T08:33:16.692Z,17.92
2019-03-30T08:35:45.756Z,18.95
2019-03-30T08:38:14.944Z,18.65
2019-03-30T08:40:44.050Z,21.00
2019-03-30T08:43:13.145Z,16.57
2019-03-30T08:45:49.069Z,18.87
2019-03-30T08:48:18.238Z,15.95
2019-03-30T08:50:50.290Z,19.42
2019-03-30T08:53:21.376Z,19.57
2019-03-30T08:55:50.402Z,15.98
2019-03-30T08:58:21.066Z,16.45
2019-03-30T09:00:50.141Z,18.20
2019-03-30T09:03:19.224Z,18.30
2019-03-30T09:05:48.352Z,19.60
2019-03-30T09:08:17.453Z,19.25
2019-03-30T09:10:46.537Z,16.27
2019-03-30T09:13:15.535Z,15.68
2019-03-30T09:15:44.540Z,17.15
2019-03-30T09:18:13.565Z,19.10
2019-03-30T09:20:42.631Z,15.08
2019-03-30T09:23:11.723Z,16.67
2019-03-30T09:25:40.783Z,20.05
2019-03-30T09:28:09.859Z,25.08
2019-03-30T09:30:39.038Z,18.10
2019-03-30T09:33:08.065Z,18.77
2019-03-30T09:35:38.470Z,18.15
2019-03-30T09:38:07.678Z,25.97
2019-03-30T09:40:36.648Z,22.85
2019-03-30T09:43:10.508Z,20.82
2019-03-30T09:45:42.422Z,22.25
2019-03-30T09:48:11.549Z,17.10
2019-03-30T09:50:40.620Z,21.80
2019-03-30T09:53:09.805Z,18.80
2019-03-30T09:55:38.822Z,18.40
2019-03-30T09:58:10.143Z,29.13
2019-03-30T10:00:39.208Z,25.20
2019-03-30T10:03:08.263Z,22.17
2019-03-30T10:05:37.347Z,24.70
2019-03-30T10:11:04.411Z,23.10
2019-03-30T10:13:33.517Z,20.43
2019-03-30T10:16:04.197Z,21.93
2019-03-30T10:18:33.219Z,25.60
2019-03-30T10:21:02.190Z,22.53
2019-03-30T10:23:31.203Z,23.53
2019-03-30T10:26:01.229Z,20.10
2019-03-30T10:28:30.281Z,21.73
2019-03-30T10:30:59.350Z,21.47
2019-03-30T10:33:28.394Z,21.00
2019-03-30T10:35:57.508Z,21.97
2019-03-30T10:38:26.567Z,23.10
2019-03-30T10:40:55.603Z,20.47
2019-03-30T10:43:24.668Z,22.80
2019-03-30T10:45:53.800Z,25.13
2019-03-30T10:48:22.854Z,25.53
2019-03-30T10:50:51.933Z,26.67
2019-03-30T10:53:21.042Z,26.30
2019-03-30T10:55:56.919Z,21.47
2019-03-30T10:58:28.417Z,24.25
2019-03-30T11:00:57.472Z,26.52
2019-03-30T11:03:26.475Z,23.22
2019-03-30T11:05:57.141Z,25.27
2019-03-30T11:08:26.388Z,24.47
2019-03-30T11:10:55.435Z,22.73
2019-03-30T11:13:24.452Z,24.60
2019-03-30T11:15:53.548Z,21.83
2019-03-30T11:18:23.719Z,23.20
2019-03-30T11:20:52.760Z,24.47
2019-03-30T11:23:21.777Z,27.58
2019-03-30T11:25:50.801Z,22.30
2019-03-30T11:28:19.872Z,28.23
2019-03-30T11:30:49.009Z,24.52
2019-03-30T11:33:18.122Z,26.75
2019-03-30T11:35:47.212Z,26.77
2019-03-30T11:38:16.199Z,27.33
2019-03-30T11:40:45.209Z,28.30
2019-03-30T11:43:14.305Z,30.33
2019-03-30T11:45:43.421Z,24.13
2019-03-30T11:48:12.500Z,27.53
2019-03-30T11:50:42.912Z,30.40
2019-03-30T11:53:11.893Z,24.73
2019-03-30T11:55:40.995Z,24.33
2019-03-30T11:58:12.361Z,21.87
2019-03-30T12:00:41.440Z,24.37
2019-03-30T12:03:10.474Z,23.80
2019-03-30T12:05:39.609Z,21.90
2019-03-30T12:08:08.681Z,22.10
2019-03-30T12:10:37.746Z,19.60
2019-03-30T12:13:06.835Z,19.90
2019-03-30T12:15:35.937Z,24.13
2019-03-30T12:18:04.941Z,23.50
2019-03-30T12:20:33.936Z,23.40
2019-03-30T12:23:03.042Z,21.93
2019-03-30T12:25:36.024Z,24.03
2019-03-30T12:28:02.863Z,18.60
2019-03-30T12:30:31.909Z,22.43
2019-03-30T12:33:00.900Z,20.20
2019-03-30T12:35:30.000Z,18.43
2019-03-30T12:37:59.007Z,21.53
2019-03-30T12:40:29.704Z,20.53
2019-03-30T12:42:58.811Z,16.73
2019-03-30T12:45:27.836Z,23.90
2019-03-30T12:47:56.900Z,23.07
2019-03-30T12:50:26.098Z,21.07
2019-03-30T12:52:57.442Z,27.67
2019-03-30T12:55:27.722Z,20.97
2019-03-30T12:57:59.794Z,17.87
2019-03-30T13:00:29.053Z,20.90
2019-03-30T13:02:58.153Z,20.37
2019-03-30T13:05:27.202Z,18.70
2019-03-30T13:07:56.239Z,20.37
2019-03-30T13:10:25.250Z,13.63
2019-03-30T13:12:54.394Z,16.30
2019-03-30T13:15:23.479Z,16.43
2019-03-30T13:17:52.598Z,14.47
2019-03-30T13:20:21.643Z,14.23
2019-03-30T13:22:50.746Z,18.23
2019-03-30T13:25:20.381Z,11.37
2019-03-30T13:27:49.540Z,13.83
2019-03-30T13:30:18.627Z,13.30
2019-03-30T13:32:47.719Z,14.77
2019-03-30T13:35:16.738Z,16.20
2019-03-30T13:37:45.905Z,16.40
2019-03-30T13:40:15.041Z,17.43
2019-03-30T13:42:44.044Z,15.17
2019-03-30T13:45:13.014Z,12.80
2019-03-30T13:47:42.017Z,10.90
2019-03-30T13:50:11.102Z,12.37
2019-03-30T13:52:40.194Z,11.63
2019-03-30T13:55:09.477Z,12.00
2019-03-30T13:57:38.609Z,11.30
2019-03-30T14:00:08.424Z,12.70
2019-03-30T14:02:37.401Z,13.77
2019-03-30T14:05:06.714Z,13.30
2019-03-30T14:07:35.824Z,11.63
2019-03-30T14:10:05.785Z,15.77
2019-03-30T14:12:34.836Z,13.33
2019-03-30T14:15:03.868Z,13.13
2019-03-30T14:17:33.058Z,11.67
2019-03-30T14:20:02.114Z,12.60
2019-03-30T14:22:31.165Z,11.87
2019-03-30T14:25:00.227Z,11.43
2019-03-30T14:27:29.529Z,13.57
2019-03-30T14:29:58.694Z,12.37
2019-03-30T14:32:27.774Z,12.83
2019-03-30T14:34:56.856Z,13.67
2019-03-30T14:37:25.939Z,15.30
2019-03-30T14:39:55.040Z,12.93
2019-03-30T14:42:24.119Z,15.57
2019-03-30T14:44:53.198Z,19.43
2019-03-30T14:47:22.369Z,13.10
2019-03-30T14:49:51.454Z,18.07
2019-03-30T14:52:20.429Z,14.17
2019-03-30T14:54:53.147Z,18.83
2019-03-30T14:57:20.215Z,13.93
2019-03-30T14:59:49.343Z,16.83
2019-03-30T15:02:18.420Z,13.77
2019-03-30T15:04:47.493Z,19.83
2019-03-30T15:07:25.392Z,18.13
2019-03-30T15:09:56.377Z,30.27
2019-03-30T15:12:27.903Z,21.17
2019-03-30T15:14:56.905Z,18.37
2019-03-30T15:17:25.913Z,21.50
2019-03-30T15:19:54.951Z,14.17
2019-03-30T15:22:23.995Z,15.03
2019-03-30T15:24:53.023Z,17.93
2019-03-30T15:27:22.036Z,16.10
2019-03-30T15:29:51.128Z,19.20
2019-03-30T15:32:20.310Z,12.87
2019-03-30T15:34:49.425Z,14.77
2019-03-30T15:37:23.609Z,15.77
2019-03-30T15:39:52.718Z,14.67
2019-03-30T15:42:21.802Z,13.80
2019-03-30T15:44:50.878Z,13.00
2019-03-30T15:47:20.478Z,18.30
2019-03-30T15:49:49.550Z,13.90
2019-03-30T15:52:18.591Z,14.00
2019-03-30T15:54:47.713Z,12.93
2019-03-30T15:57:17.803Z,12.53
2019-03-30T15:59:46.853Z,13.20
2019-03-30T16:02:15.913Z,13.07
2019-03-30T16:04:46.610Z,16.80
2019-03-30T16:07:15.677Z,15.93
2019-03-30T16:09:44.793Z,13.63
2019-03-30T16:12:13.849Z,12.50
2019-03-30T16:14:43.006Z,13.63
2019-03-30T16:17:16.168Z,15.70
2019-03-30T16:19:45.248Z,15.17
2019-03-30T16:22:14.283Z,12.10
2019-03-30T16:24:43.406Z,12.73
2019-03-30T16:27:12.489Z,12.13
2019-03-30T16:29:41.544Z,13.07
2019-03-30T16:32:11.708Z,13.47
2019-03-30T16:34:40.812Z,11.97
2019-03-30T16:37:09.958Z,13.13
2019-03-30T16:39:39.069Z,12.77
2019-03-30T16:42:08.086Z,12.83
2019-03-30T16:44:37.072Z,10.43
2019-03-30T16:47:06.189Z,12.43
2019-03-30T16:49:35.276Z,11.43
2019-03-30T16:52:04.395Z,14.17
2019-03-30T16:54:35.763Z,14.47
2019-03-30T16:57:04.848Z,12.60
2019-03-30T16:59:42.101Z,11.43
2019-03-30T17:02:11.232Z,15.33
2019-03-30T17:04:40.774Z,17.27
2019-03-30T17:07:09.919Z,13.27
2019-03-30T17:09:39.456Z,15.33
2019-03-30T17:12:08.783Z,11.37
2019-03-30T17:14:37.952Z,17.17
2019-03-30T17:17:07.795Z,10.73
2019-03-30T17:19:37.010Z,10.67
2019-03-30T17:22:06.075Z,10.50
2019-03-30T17:24:35.525Z,11.67
2019-03-30T17:27:04.601Z,10.47
2019-03-30T17:29:33.724Z,10.90
2019-03-30T17:32:02.874Z,18.20
2019-03-30T17:34:31.976Z,16.10
2019-03-30T17:37:01.071Z,18.87
2019-03-30T17:39:30.280Z,28.83
2019-03-30T17:41:59.541Z,37.80
2019-03-30T17:44:28.638Z,40.47
2019-03-30T17:46:58.626Z,43.90
2019-03-30T17:49:30.845Z,43.30
2019-03-30T17:51:59.916Z,44.87
2019-03-30T17:54:29.325Z,48.10
2019-03-30T17:56:58.389Z,45.17
2019-03-30T17:59:27.444Z,45.47
2019-03-30T18:01:56.565Z,47.87
2019-03-30T18:04:25.725Z,49.00
2019-03-30T18:06:54.818Z,48.23
2019-03-30T18:09:23.926Z,49.70
2019-03-30T18:11:53.002Z,49.47
2019-03-30T18:14:22.136Z,56.50
2019-03-30T18:16:51.300Z,58.83
2019-03-30T18:19:21.039Z,50.37
2019-03-30T18:21:50.226Z,50.50
2019-03-30T18:24:19.338Z,59.47
2019-03-30T18:26:48.371Z,66.60
2019-03-30T18:29:17.500Z,61.47
2019-03-30T18:31:46.696Z,60.27
2019-03-30T18:34:15.919Z,58.00
2019-03-30T18:36:45.825Z,70.57
2019-03-30T18:39:15.312Z,65.33
2019-03-30T18:41:44.358Z,60.20
2019-03-30T18:44:13.445Z,56.90
2019-03-30T18:46:42.549Z,61.63
2019-03-30T18:49:11.933Z,51.17
2019-03-30T18:51:42.376Z,52.03
2019-03-30T18:54:13.768Z,54.13
2019-03-30T18:56:42.801Z,52.43
2019-03-30T18:59:11.843Z,63.00
2019-03-30T19:01:41.119Z,57.50
2019-03-30T19:04:10.304Z,59.37
2019-03-30T19:06:39.512Z,55.30
2019-03-30T19:09:09.317Z,58.93
2019-03-30T19:11:38.504Z,68.10
2019-03-30T19:14:07.561Z,64.87
2019-03-30T19:16:37.027Z,65.20
2019-03-30T19:19:06.741Z,81.57
2019-03-30T19:21:36.179Z,72.27
2019-03-30T19:24:05.225Z,72.50
2019-03-30T19:26:34.437Z,76.53
2019-03-30T19:29:03.533Z,79.57
2019-03-30T19:31:32.659Z,75.17
2019-03-30T19:34:01.742Z,82.77
2019-03-30T19:36:31.247Z,72.53
2019-03-30T19:39:00.463Z,82.03
2019-03-30T19:41:29.625Z,76.87
2019-03-30T19:43:58.764Z,78.73
2019-03-30T19:46:28.059Z,79.23
2019-03-30T19:48:57.234Z,69.17
2019-03-30T19:51:26.513Z,81.23
2019-03-30T19:53:55.651Z,73.87
2019-03-30T19:56:25.015Z,70.67
2019-03-30T19:58:54.326Z,73.23
2019-03-30T20:01:23.490Z,81.13
2019-03-30T20:03:52.673Z,67.40
2019-03-30T20:06:21.952Z,61.87
2019-03-30T20:08:51.128Z,61.73
2019-03-30T20:11:23.552Z,68.87
2019-03-30T20:13:53.725Z,75.03
2019-03-30T20:16:26.368Z,61.90
2019-03-30T20:19:10.926Z,78.77
2019-03-30T20:21:26.561Z,62.90
2019-03-30T20:23:57.947Z,73.70
2019-03-30T20:26:29.261Z,54.13
2019-03-30T20:28:59.394Z,68.00
2019-03-30T20:31:29.483Z,70.83
2019-03-30T20:33:58.580Z,74.40
2019-03-30T20:36:27.820Z,69.33
2019-03-30T20:38:56.957Z,69.23
2019-03-30T20:41:28.795Z,68.00
2019-03-30T20:43:57.955Z,71.07
2019-03-30T20:46:27.234Z,67.83
2019-03-30T20:48:59.042Z,70.20
2019-03-30T20:51:28.110Z,72.13
2019-03-30T20:53:57.286Z,65.60
2019-03-30T20:56:26.426Z,74.37
2019-03-30T20:58:55.547Z,73.07
2019-03-30T21:01:26.460Z,64.60
2019-03-30T21:03:55.761Z,71.33
2019-03-30T21:06:24.811Z,66.87
2019-03-30T21:08:53.992Z,72.10
2019-03-30T21:11:23.099Z,65.67
2019-03-30T21:13:59.670Z,71.43
2019-03-30T21:16:31.657Z,62.23
2019-03-30T21:19:00.850Z,64.87
2019-03-30T21:21:29.913Z,69.40
2019-03-30T21:23:58.999Z,66.47
2019-03-30T21:26:30.190Z,70.00
2019-03-30T21:28:59.266Z,71.20
2019-03-30T21:31:30.639Z,74.83
2019-03-30T21:33:59.717Z,71.83
2019-03-30T21:36:28.990Z,64.13
2019-03-30T21:39:03.839Z,69.87
2019-03-30T21:41:32.882Z,74.97
2019-03-30T21:44:02.017Z,66.33
2019-03-30T21:46:31.219Z,72.57
2019-03-30T21:49:00.372Z,64.83
2019-03-30T21:51:52.474Z,64.60
2019-03-30T21:54:27.843Z,64.50
2019-03-30T21:56:56.590Z,58.67
2019-03-30T21:59:27.756Z,64.83
2019-03-30T22:01:56.578Z,77.33
2019-03-30T22:04:27.673Z,59.07
2019-03-30T22:06:56.413Z,70.27
2019-03-30T22:09:25.551Z,58.07
2019-03-30T22:11:54.625Z,64.37
2019-03-30T22:14:23.714Z,70.60
2019-03-30T22:16:52.798Z,61.93
2019-03-30T22:19:21.905Z,65.83
2019-03-30T22:21:52.085Z,75.10
2019-03-30T22:24:22.302Z,83.83
2019-03-30T22:26:51.466Z,63.77
2019-03-30T22:29:20.516Z,74.60
2019-03-30T22:31:49.541Z,65.07
2019-03-30T22:34:18.611Z,75.17
2019-03-30T22:36:47.646Z,71.53
2019-03-30T22:39:21.857Z,66.20
2019-03-30T22:41:52.642Z,67.60
2019-03-30T22:44:21.760Z,74.33
2019-03-30T22:46:52.287Z,88.77
2019-03-30T22:49:24.085Z,82.67
2019-03-30T22:51:54.779Z,73.90
2019-03-30T22:54:24.245Z,75.93
2019-03-30T22:56:53.471Z,68.40
2019-03-30T22:59:22.578Z,74.80
2019-03-30T23:01:53.000Z,70.13
2019-03-30T23:04:22.168Z,76.00
2019-03-30T23:06:51.220Z,77.63
2019-03-30T23:09:20.207Z,74.33
2019-03-30T23:11:49.230Z,67.57
2019-03-30T23:14:18.334Z,75.93
2019-03-30T23:16:47.436Z,63.17
2019-03-30T23:19:16.708Z,53.97
2019-03-30T23:21:45.785Z,51.23
2019-03-30T23:24:14.842Z,57.67
2019-03-30T23:26:43.883Z,47.73
2019-03-30T23:29:12.917Z,53.67
2019-03-30T23:31:44.714Z,51.10
2019-03-30T23:34:13.707Z,45.00
2019-03-30T23:36:42.721Z,49.57
2019-03-30T23:39:11.706Z,46.70
2019-03-30T23:41:43.275Z,42.57
2019-03-30T23:44:12.359Z,47.53
2019-03-30T23:46:41.360Z,39.50
2019-03-30T23:49:10.351Z,35.43
2019-03-30T23:51:39.390Z,38.80
2019-03-30T23:54:13.595Z,47.37
2019-03-30T23:56:45.683Z,35.43
2019-03-30T23:59:14.812Z,35.97
